sensor_id;sensor_type;location;lat;lon;timestamp;P1;durP1;ratioP1;P2;durP2;ratioP2
26594;SDS011;14238;49.496;8.154;2024-01-30T00:02:17;6.00;;;4.97;;
26594;SDS011;14238;49.496;8.154;2024-01-30T00:04:43;4.53;;;4.13;;
26594;SDS011;14238;49.496;8.154;2024-01-30T00:07:09;4.70;;;4.30;;
26594;SDS011;14238;49.496;8.154;2024-01-30T00:09:34;4.70;;;4.30;;
26594;SDS011;14238;49.496;8.154;2024-01-30T00:12:00;4.57;;;4.20;;
26594;SDS011;14238;49.496;8.154;2024-01-30T00:14:25;4.53;;;4.17;;
26594;SDS011;14238;49.496;8.154;2024-01-30T00:16:51;5.27;;;4.80;;
26594;SDS011;14238;49.496;8.154;2024-01-30T00:19:16;4.97;;;4.40;;
26594;SDS011;14238;49.496;8.154;2024-01-30T00:21:42;5.13;;;4.70;;
26594;SDS011;14238;49.496;8.154;2024-01-30T00:24:08;5.03;;;4.63;;
26594;SDS011;14238;49.496;8.154;2024-01-30T00:26:34;4.40;;;4.10;;
26594;SDS011;14238;49.496;8.154;2024-01-30T00:29:02;4.80;;;4.27;;
26594;SDS011;14238;49.496;8.154;2024-01-30T00:31:29;4.93;;;4.33;;
26594;SDS011;14238;49.496;8.154;2024-01-30T00:33:56;6.83;;;4.70;;
26594;SDS011;14238;49.496;8.154;2024-01-30T00:36:24;5.90;;;4.20;;
26594;SDS011;14238;49.496;8.154;2024-01-30T00:38:55;5.40;;;4.40;;
26594;SDS011;14238;49.496;8.154;2024-01-30T00:41:23;4.40;;;4.10;;
26594;SDS011;14238;49.496;8.154;2024-01-30T00:43:51;5.13;;;4.63;;
26594;SDS011;14238;49.496;8.154;2024-01-30T00:46:20;4.90;;;4.50;;
26594;SDS011;14238;49.496;8.154;2024-01-30T00:48:48;5.17;;;4.67;;
26594;SDS011;14238;49.496;8.154;2024-01-30T00:51:16;5.50;;;5.00;;
26594;SDS011;14238;49.496;8.154;2024-01-30T00:53:44;6.10;;;4.87;;
26594;SDS011;14238;49.496;8.154;2024-01-30T00:56:13;4.63;;;4.07;;
26594;SDS011;14238;49.496;8.154;2024-01-30T00:58:43;4.77;;;4.20;;
26594;SDS011;14238;49.496;8.154;2024-01-30T01:01:09;5.17;;;4.53;;
26594;SDS011;14238;49.496;8.154;2024-01-30T01:03:37;5.00;;;4.60;;
26594;SDS011;14238;49.496;8.154;2024-01-30T01:06:05;5.07;;;4.50;;
26594;SDS011;14238;49.496;8.154;2024-01-30T01:08:32;4.57;;;4.27;;
26594;SDS011;14238;49.496;8.154;2024-01-30T01:10:59;10.43;;;4.53;;
26594;SDS011;14238;49.496;8.154;2024-01-30T01:13:25;4.40;;;4.10;;
26594;SDS011;14238;49.496;8.154;2024-01-30T01:15:50;5.70;;;5.10;;
26594;SDS011;14238;49.496;8.154;2024-01-30T01:18:16;5.17;;;4.67;;
26594;SDS011;14238;49.496;8.154;2024-01-30T01:20:44;4.87;;;4.47;;
26594;SDS011;14238;49.496;8.154;2024-01-30T01:23:12;5.60;;;5.10;;
26594;SDS011;14238;49.496;8.154;2024-01-30T01:25:40;5.03;;;4.63;;
26594;SDS011;14238;49.496;8.154;2024-01-30T01:28:09;5.70;;;4.90;;
26594;SDS011;14238;49.496;8.154;2024-01-30T01:30:37;5.97;;;5.37;;
26594;SDS011;14238;49.496;8.154;2024-01-30T01:33:04;4.43;;;4.03;;
26594;SDS011;14238;49.496;8.154;2024-01-30T01:35:31;5.37;;;4.87;;
26594;SDS011;14238;49.496;8.154;2024-01-30T01:37:57;5.03;;;4.50;;
26594;SDS011;14238;49.496;8.154;2024-01-30T01:40:25;4.67;;;4.30;;
26594;SDS011;14238;49.496;8.154;2024-01-30T01:42:52;6.63;;;5.40;;
26594;SDS011;14238;49.496;8.154;2024-01-30T01:45:18;6.00;;;4.80;;
26594;SDS011;14238;49.496;8.154;2024-01-30T01:47:46;5.40;;;4.90;;
26594;SDS011;14238;49.496;8.154;2024-01-30T01:50:15;5.73;;;5.13;;
26594;SDS011;14238;49.496;8.154;2024-01-30T01:52:46;5.13;;;4.73;;
26594;SDS011;14238;49.496;8.154;2024-01-30T01:55:12;4.63;;;4.23;;
26594;SDS011;14238;49.496;8.154;2024-01-30T01:57:39;5.73;;;5.33;;
26594;SDS011;14238;49.496;8.154;2024-01-30T02:00:06;5.87;;;5.37;;
26594;SDS011;14238;49.496;8.154;2024-01-30T02:02:34;6.20;;;5.70;;
26594;SDS011;14238;49.496;8.154;2024-01-30T02:05:01;6.20;;;5.10;;
26594;SDS011;14238;49.496;8.154;2024-01-30T02:07:30;7.00;;;5.80;;
26594;SDS011;14238;49.496;8.154;2024-01-30T02:09:56;5.30;;;4.80;;
26594;SDS011;14238;49.496;8.154;2024-01-30T02:12:22;5.60;;;5.10;;
26594;SDS011;14238;49.496;8.154;2024-01-30T02:14:48;5.27;;;4.87;;
26594;SDS011;14238;49.496;8.154;2024-01-30T02:17:15;7.20;;;5.53;;
26594;SDS011;14238;49.496;8.154;2024-01-30T02:19:41;5.77;;;5.27;;
26594;SDS011;14238;49.496;8.154;2024-01-30T02:22:07;5.90;;;5.30;;
26594;SDS011;14238;49.496;8.154;2024-01-30T02:24:34;7.30;;;5.30;;
26594;SDS011;14238;49.496;8.154;2024-01-30T02:27:00;5.63;;;5.17;;
26594;SDS011;14238;49.496;8.154;2024-01-30T02:29:26;5.77;;;5.27;;
26594;SDS011;14238;49.496;8.154;2024-01-30T02:31:52;5.83;;;5.33;;
26594;SDS011;14238;49.496;8.154;2024-01-30T02:34:18;5.47;;;4.93;;
26594;SDS011;14238;49.496;8.154;2024-01-30T02:36:44;6.77;;;6.17;;
26594;SDS011;14238;49.496;8.154;2024-01-30T02:39:11;6.73;;;6.03;;
26594;SDS011;14238;49.496;8.154;2024-01-30T02:41:37;7.43;;;6.73;;
26594;SDS011;14238;49.496;8.154;2024-01-30T02:44:03;6.47;;;5.90;;
26594;SDS011;14238;49.496;8.154;2024-01-30T02:46:29;8.20;;;6.40;;
26594;SDS011;14238;49.496;8.154;2024-01-30T02:48:54;11.70;;;6.83;;
26594;SDS011;14238;49.496;8.154;2024-01-30T02:51:20;8.10;;;7.30;;
26594;SDS011;14238;49.496;8.154;2024-01-30T02:53:46;7.73;;;6.93;;
26594;SDS011;14238;49.496;8.154;2024-01-30T02:56:11;8.03;;;7.33;;
26594;SDS011;14238;49.496;8.154;2024-01-30T02:58:39;7.87;;;6.93;;
26594;SDS011;14238;49.496;8.154;2024-01-30T03:01:06;9.00;;;7.27;;
26594;SDS011;14238;49.496;8.154;2024-01-30T03:03:33;7.83;;;7.13;;
26594;SDS011;14238;49.496;8.154;2024-01-30T03:06:01;8.70;;;7.90;;
26594;SDS011;14238;49.496;8.154;2024-01-30T03:08:27;12.87;;;7.87;;
26594;SDS011;14238;49.496;8.154;2024-01-30T03:10:54;8.80;;;7.50;;
26594;SDS011;14238;49.496;8.154;2024-01-30T03:13:22;10.50;;;7.27;;
26594;SDS011;14238;49.496;8.154;2024-01-30T03:15:49;10.60;;;7.83;;
26594;SDS011;14238;49.496;8.154;2024-01-30T03:18:16;8.90;;;7.70;;
26594;SDS011;14238;49.496;8.154;2024-01-30T03:20:42;7.93;;;7.17;;
26594;SDS011;14238;49.496;8.154;2024-01-30T03:23:07;9.73;;;8.83;;
26594;SDS011;14238;49.496;8.154;2024-01-30T03:25:33;9.47;;;8.57;;
26594;SDS011;14238;49.496;8.154;2024-01-30T03:27:58;7.70;;;6.90;;
26594;SDS011;14238;49.496;8.154;2024-01-30T03:30:24;9.00;;;7.77;;
26594;SDS011;14238;49.496;8.154;2024-01-30T03:32:49;10.03;;;7.70;;
26594;SDS011;14238;49.496;8.154;2024-01-30T03:35:15;10.53;;;9.53;;
26594;SDS011;14238;49.496;8.154;2024-01-30T03:37:41;10.00;;;9.07;;
26594;SDS011;14238;49.496;8.154;2024-01-30T03:40:06;10.93;;;9.50;;
26594;SDS011;14238;49.496;8.154;2024-01-30T03:42:32;10.73;;;9.67;;
26594;SDS011;14238;49.496;8.154;2024-01-30T03:44:58;10.20;;;9.20;;
26594;SDS011;14238;49.496;8.154;2024-01-30T03:47:23;10.60;;;8.90;;
26594;SDS011;14238;49.496;8.154;2024-01-30T03:49:49;11.80;;;10.60;;
26594;SDS011;14238;49.496;8.154;2024-01-30T03:52:14;13.00;;;10.60;;
26594;SDS011;14238;49.496;8.154;2024-01-30T03:54:40;12.43;;;10.87;;
26594;SDS011;14238;49.496;8.154;2024-01-30T03:57:05;11.93;;;10.73;;
26594;SDS011;14238;49.496;8.154;2024-01-30T03:59:31;12.37;;;10.77;;
26594;SDS011;14238;49.496;8.154;2024-01-30T04:01:57;14.20;;;11.07;;
26594;SDS011;14238;49.496;8.154;2024-01-30T04:04:22;13.10;;;11.20;;
26594;SDS011;14238;49.496;8.154;2024-01-30T04:06:48;15.87;;;12.43;;
26594;SDS011;14238;49.496;8.154;2024-01-30T04:09:14;15.23;;;13.60;;
26594;SDS011;14238;49.496;8.154;2024-01-30T04:11:39;15.33;;;13.60;;
26594;SDS011;14238;49.496;8.154;2024-01-30T04:16:42;15.17;;;13.50;;
26594;SDS011;14238;49.496;8.154;2024-01-30T04:19:07;23.00;;;17.93;;
26594;SDS011;14238;49.496;8.154;2024-01-30T04:21:33;17.10;;;15.30;;
26594;SDS011;14238;49.496;8.154;2024-01-30T04:23:58;19.60;;;15.80;;
26594;SDS011;14238;49.496;8.154;2024-01-30T04:26:24;17.00;;;14.67;;
26594;SDS011;14238;49.496;8.154;2024-01-30T04:28:50;16.87;;;15.07;;
26594;SDS011;14238;49.496;8.154;2024-01-30T04:31:16;18.30;;;16.40;;
26594;SDS011;14238;49.496;8.154;2024-01-30T04:33:41;15.30;;;13.77;;
26594;SDS011;14238;49.496;8.154;2024-01-30T04:36:10;19.23;;;17.13;;
26594;SDS011;14238;49.496;8.154;2024-01-30T04:38:36;20.97;;;18.30;;
26594;SDS011;14238;49.496;8.154;2024-01-30T04:41:02;20.67;;;18.40;;
26594;SDS011;14238;49.496;8.154;2024-01-30T04:43:29;18.83;;;16.93;;
26594;SDS011;14238;49.496;8.154;2024-01-30T04:45:55;20.63;;;17.40;;
26594;SDS011;14238;49.496;8.154;2024-01-30T04:48:22;18.77;;;16.73;;
26594;SDS011;14238;49.496;8.154;2024-01-30T04:50:49;18.60;;;16.13;;
26594;SDS011;14238;49.496;8.154;2024-01-30T04:53:15;23.23;;;17.57;;
26594;SDS011;14238;49.496;8.154;2024-01-30T04:55:41;19.50;;;17.13;;
26594;SDS011;14238;49.496;8.154;2024-01-30T04:58:08;17.47;;;15.60;;
26594;SDS011;14238;49.496;8.154;2024-01-30T05:00:34;18.47;;;15.60;;
26594;SDS011;14238;49.496;8.154;2024-01-30T05:03:01;21.03;;;17.70;;
26594;SDS011;14238;49.496;8.154;2024-01-30T05:05:27;18.60;;;16.63;;
26594;SDS011;14238;49.496;8.154;2024-01-30T05:07:52;19.40;;;17.33;;
26594;SDS011;14238;49.496;8.154;2024-01-30T05:10:19;19.07;;;17.10;;
26594;SDS011;14238;49.496;8.154;2024-01-30T05:12:45;22.17;;;17.90;;
26594;SDS011;14238;49.496;8.154;2024-01-30T05:15:11;21.90;;;19.10;;
26594;SDS011;14238;49.496;8.154;2024-01-30T05:17:36;21.93;;;19.37;;
26594;SDS011;14238;49.496;8.154;2024-01-30T05:20:02;18.47;;;16.50;;
26594;SDS011;14238;49.496;8.154;2024-01-30T05:22:28;20.47;;;18.07;;
26594;SDS011;14238;49.496;8.154;2024-01-30T05:24:53;22.80;;;18.53;;
26594;SDS011;14238;49.496;8.154;2024-01-30T05:27:19;26.13;;;20.90;;
26594;SDS011;14238;49.496;8.154;2024-01-30T05:29:45;20.47;;;18.33;;
26594;SDS011;14238;49.496;8.154;2024-01-30T05:32:10;26.30;;;21.50;;
26594;SDS011;14238;49.496;8.154;2024-01-30T05:34:36;29.00;;;22.40;;
26594;SDS011;14238;49.496;8.154;2024-01-30T05:37:02;27.20;;;21.47;;
26594;SDS011;14238;49.496;8.154;2024-01-30T05:39:27;24.43;;;19.97;;
26594;SDS011;14238;49.496;8.154;2024-01-30T05:41:53;24.90;;;21.97;;
26594;SDS011;14238;49.496;8.154;2024-01-30T05:44:19;22.13;;;19.80;;
26594;SDS011;14238;49.496;8.154;2024-01-30T05:46:44;29.17;;;22.00;;
26594;SDS011;14238;49.496;8.154;2024-01-30T05:49:10;24.97;;;20.80;;
26594;SDS011;14238;49.496;8.154;2024-01-30T05:51:35;27.13;;;21.20;;
26594;SDS011;14238;49.496;8.154;2024-01-30T05:54:01;25.20;;;20.27;;
26594;SDS011;14238;49.496;8.154;2024-01-30T05:56:28;21.77;;;19.03;;
26594;SDS011;14238;49.496;8.154;2024-01-30T05:58:54;18.70;;;16.77;;
26594;SDS011;14238;49.496;8.154;2024-01-30T06:01:21;18.73;;;16.83;;
26594;SDS011;14238;49.496;8.154;2024-01-30T06:03:46;19.10;;;17.10;;
26594;SDS011;14238;49.496;8.154;2024-01-30T06:06:12;17.93;;;16.20;;
26594;SDS011;14238;49.496;8.154;2024-01-30T06:08:38;20.37;;;18.37;;
26594;SDS011;14238;49.496;8.154;2024-01-30T06:11:05;18.53;;;16.63;;
26594;SDS011;14238;49.496;8.154;2024-01-30T06:13:32;18.90;;;16.73;;
26594;SDS011;14238;49.496;8.154;2024-01-30T06:15:59;20.10;;;15.80;;
26594;SDS011;14238;49.496;8.154;2024-01-30T06:18:26;18.03;;;16.20;;
26594;SDS011;14238;49.496;8.154;2024-01-30T06:20:55;17.97;;;16.03;;
26594;SDS011;14238;49.496;8.154;2024-01-30T06:23:22;17.00;;;15.20;;
26594;SDS011;14238;49.496;8.154;2024-01-30T06:25:50;15.63;;;14.13;;
26594;SDS011;14238;49.496;8.154;2024-01-30T06:28:16;16.43;;;14.77;;
26594;SDS011;14238;49.496;8.154;2024-01-30T06:30:43;16.67;;;14.97;;
26594;SDS011;14238;49.496;8.154;2024-01-30T06:33:11;16.70;;;14.97;;
26594;SDS011;14238;49.496;8.154;2024-01-30T06:35:38;15.97;;;14.43;;
26594;SDS011;14238;49.496;8.154;2024-01-30T06:38:06;17.20;;;15.37;;
26594;SDS011;14238;49.496;8.154;2024-01-30T06:40:35;16.60;;;14.53;;
26594;SDS011;14238;49.496;8.154;2024-01-30T06:43:02;14.60;;;13.10;;
26594;SDS011;14238;49.496;8.154;2024-01-30T06:45:29;16.60;;;14.90;;
26594;SDS011;14238;49.496;8.154;2024-01-30T06:47:55;15.77;;;14.07;;
26594;SDS011;14238;49.496;8.154;2024-01-30T06:50:21;15.63;;;13.93;;
26594;SDS011;14238;49.496;8.154;2024-01-30T06:52:46;17.37;;;15.60;;
26594;SDS011;14238;49.496;8.154;2024-01-30T06:55:12;15.63;;;13.93;;
26594;SDS011;14238;49.496;8.154;2024-01-30T06:57:39;16.83;;;14.47;;
26594;SDS011;14238;49.496;8.154;2024-01-30T07:00:04;15.30;;;13.70;;
26594;SDS011;14238;49.496;8.154;2024-01-30T07:02:33;17.57;;;14.63;;
26594;SDS011;14238;49.496;8.154;2024-01-30T07:04:58;16.20;;;14.40;;
26594;SDS011;14238;49.496;8.154;2024-01-30T07:07:27;16.50;;;14.50;;
26594;SDS011;14238;49.496;8.154;2024-01-30T07:09:53;17.00;;;15.20;;
26594;SDS011;14238;49.496;8.154;2024-01-30T07:12:21;16.03;;;13.97;;
26594;SDS011;14238;49.496;8.154;2024-01-30T07:14:47;17.27;;;15.47;;
26594;SDS011;14238;49.496;8.154;2024-01-30T07:17:13;21.47;;;18.27;;
26594;SDS011;14238;49.496;8.154;2024-01-30T07:19:39;17.40;;;15.47;;
26594;SDS011;14238;49.496;8.154;2024-01-30T07:22:04;18.47;;;16.60;;
26594;SDS011;14238;49.496;8.154;2024-01-30T07:24:30;20.23;;;16.37;;
26594;SDS011;14238;49.496;8.154;2024-01-30T07:26:55;17.20;;;15.30;;
26594;SDS011;14238;49.496;8.154;2024-01-30T07:29:21;17.63;;;15.50;;
26594;SDS011;14238;49.496;8.154;2024-01-30T07:31:47;17.87;;;16.10;;
26594;SDS011;14238;49.496;8.154;2024-01-30T07:34:13;18.00;;;15.53;;
26594;SDS011;14238;49.496;8.154;2024-01-30T07:36:40;16.03;;;14.53;;
26594;SDS011;14238;49.496;8.154;2024-01-30T07:39:06;15.40;;;13.90;;
26594;SDS011;14238;49.496;8.154;2024-01-30T07:41:32;16.07;;;14.23;;
26594;SDS011;14238;49.496;8.154;2024-01-30T07:43:58;18.20;;;15.77;;
26594;SDS011;14238;49.496;8.154;2024-01-30T07:46:24;15.73;;;14.00;;
26594;SDS011;14238;49.496;8.154;2024-01-30T07:48:50;17.50;;;15.80;;
26594;SDS011;14238;49.496;8.154;2024-01-30T07:51:16;16.70;;;14.90;;
26594;SDS011;14238;49.496;8.154;2024-01-30T07:53:42;16.80;;;15.03;;
26594;SDS011;14238;49.496;8.154;2024-01-30T07:56:08;16.23;;;14.40;;
26594;SDS011;14238;49.496;8.154;2024-01-30T07:58:34;17.77;;;15.07;;
26594;SDS011;14238;49.496;8.154;2024-01-30T08:01:00;14.33;;;12.83;;
26594;SDS011;14238;49.496;8.154;2024-01-30T08:03:26;15.60;;;13.20;;
26594;SDS011;14238;49.496;8.154;2024-01-30T08:05:52;14.27;;;12.87;;
26594;SDS011;14238;49.496;8.154;2024-01-30T08:08:18;14.73;;;13.23;;
26594;SDS011;14238;49.496;8.154;2024-01-30T08:10:43;16.03;;;14.10;;
26594;SDS011;14238;49.496;8.154;2024-01-30T08:13:09;16.93;;;14.73;;
26594;SDS011;14238;49.496;8.154;2024-01-30T08:15:34;15.93;;;14.43;;
26594;SDS011;14238;49.496;8.154;2024-01-30T08:18:00;18.53;;;16.57;;
26594;SDS011;14238;49.496;8.154;2024-01-30T08:20:26;17.83;;;16.13;;
26594;SDS011;14238;49.496;8.154;2024-01-30T08:22:53;18.63;;;16.83;;
26594;SDS011;14238;49.496;8.154;2024-01-30T08:25:19;17.90;;;16.07;;
26594;SDS011;14238;49.496;8.154;2024-01-30T08:27:44;20.30;;;18.30;;
26594;SDS011;14238;49.496;8.154;2024-01-30T08:30:10;19.93;;;18.03;;
26594;SDS011;14238;49.496;8.154;2024-01-30T08:32:36;19.70;;;17.67;;
26594;SDS011;14238;49.496;8.154;2024-01-30T08:35:02;19.43;;;17.37;;
26594;SDS011;14238;49.496;8.154;2024-01-30T08:37:31;18.67;;;16.70;;
26594;SDS011;14238;49.496;8.154;2024-01-30T08:39:58;19.97;;;17.90;;
26594;SDS011;14238;49.496;8.154;2024-01-30T08:42:24;19.37;;;17.47;;
26594;SDS011;14238;49.496;8.154;2024-01-30T08:44:51;19.90;;;17.90;;
26594;SDS011;14238;49.496;8.154;2024-01-30T08:47:18;19.37;;;17.20;;
26594;SDS011;14238;49.496;8.154;2024-01-30T08:49:43;19.83;;;17.90;;
26594;SDS011;14238;49.496;8.154;2024-01-30T08:52:12;20.30;;;18.30;;
26594;SDS011;14238;49.496;8.154;2024-01-30T08:54:38;20.50;;;18.40;;
26594;SDS011;14238;49.496;8.154;2024-01-30T08:57:06;21.60;;;19.33;;
26594;SDS011;14238;49.496;8.154;2024-01-30T08:59:32;19.87;;;17.77;;
26594;SDS011;14238;49.496;8.154;2024-01-30T09:01:58;20.47;;;18.40;;
26594;SDS011;14238;49.496;8.154;2024-01-30T09:04:24;21.87;;;19.77;;
26594;SDS011;14238;49.496;8.154;2024-01-30T09:06:50;21.17;;;18.87;;
26594;SDS011;14238;49.496;8.154;2024-01-30T09:09:16;21.77;;;19.47;;
26594;SDS011;14238;49.496;8.154;2024-01-30T09:11:41;20.23;;;18.10;;
26594;SDS011;14238;49.496;8.154;2024-01-30T09:14:07;22.80;;;19.57;;
26594;SDS011;14238;49.496;8.154;2024-01-30T09:16:32;23.43;;;19.93;;
26594;SDS011;14238;49.496;8.154;2024-01-30T09:18:58;20.90;;;18.80;;
26594;SDS011;14238;49.496;8.154;2024-01-30T09:21:24;19.77;;;17.87;;
26594;SDS011;14238;49.496;8.154;2024-01-30T09:23:49;20.00;;;17.90;;
26594;SDS011;14238;49.496;8.154;2024-01-30T09:26:15;18.27;;;16.47;;
26594;SDS011;14238;49.496;8.154;2024-01-30T09:28:40;19.90;;;17.87;;
26594;SDS011;14238;49.496;8.154;2024-01-30T09:31:10;17.70;;;15.87;;
26594;SDS011;14238;49.496;8.154;2024-01-30T09:33:36;16.80;;;15.17;;
26594;SDS011;14238;49.496;8.154;2024-01-30T09:36:02;16.60;;;14.90;;
26594;SDS011;14238;49.496;8.154;2024-01-30T09:38:27;19.27;;;15.87;;
26594;SDS011;14238;49.496;8.154;2024-01-30T09:40:53;19.87;;;15.93;;
26594;SDS011;14238;49.496;8.154;2024-01-30T09:43:23;16.37;;;14.87;;
26594;SDS011;14238;49.496;8.154;2024-01-30T09:45:52;20.43;;;14.97;;
26594;SDS011;14238;49.496;8.154;2024-01-30T09:48:19;20.60;;;18.43;;
26594;SDS011;14238;49.496;8.154;2024-01-30T09:50:45;20.60;;;18.40;;
26594;SDS011;14238;49.496;8.154;2024-01-30T09:53:11;19.17;;;16.93;;
26594;SDS011;14238;49.496;8.154;2024-01-30T09:55:39;18.50;;;16.60;;
26594;SDS011;14238;49.496;8.154;2024-01-30T09:58:08;17.87;;;16.10;;
26594;SDS011;14238;49.496;8.154;2024-01-30T10:00:33;16.37;;;14.87;;
26594;SDS011;14238;49.496;8.154;2024-01-30T10:02:59;16.53;;;15.00;;
26594;SDS011;14238;49.496;8.154;2024-01-30T10:05:26;18.00;;;16.17;;
26594;SDS011;14238;49.496;8.154;2024-01-30T10:07:56;17.53;;;15.83;;
26594;SDS011;14238;49.496;8.154;2024-01-30T10:10:22;18.97;;;17.10;;
26594;SDS011;14238;49.496;8.154;2024-01-30T10:12:51;18.60;;;16.90;;
26594;SDS011;14238;49.496;8.154;2024-01-30T10:15:17;19.60;;;17.70;;
26594;SDS011;14238;49.496;8.154;2024-01-30T10:17:44;18.20;;;16.60;;
26594;SDS011;14238;49.496;8.154;2024-01-30T10:20:12;16.83;;;15.30;;
26594;SDS011;14238;49.496;8.154;2024-01-30T10:22:38;18.10;;;16.40;;
26594;SDS011;14238;49.496;8.154;2024-01-30T10:25:10;17.80;;;16.10;;
26594;SDS011;14238;49.496;8.154;2024-01-30T10:27:39;17.87;;;16.17;;
26594;SDS011;14238;49.496;8.154;2024-01-30T10:30:07;18.03;;;16.50;;
26594;SDS011;14238;49.496;8.154;2024-01-30T10:32:34;18.20;;;16.53;;
26594;SDS011;14238;49.496;8.154;2024-01-30T10:35:01;17.93;;;16.30;;
26594;SDS011;14238;49.496;8.154;2024-01-30T10:37:28;17.50;;;16.00;;
26594;SDS011;14238;49.496;8.154;2024-01-30T10:39:57;18.10;;;16.50;;
26594;SDS011;14238;49.496;8.154;2024-01-30T10:42:26;19.37;;;17.70;;
26594;SDS011;14238;49.496;8.154;2024-01-30T10:44:59;18.40;;;16.80;;
26594;SDS011;14238;49.496;8.154;2024-01-30T10:47:27;17.60;;;16.00;;
26594;SDS011;14238;49.496;8.154;2024-01-30T10:49:55;17.70;;;16.03;;
26594;SDS011;14238;49.496;8.154;2024-01-30T10:52:23;18.47;;;16.63;;
26594;SDS011;14238;49.496;8.154;2024-01-30T10:54:53;18.57;;;16.57;;
26594;SDS011;14238;49.496;8.154;2024-01-30T10:57:24;18.93;;;17.20;;
26594;SDS011;14238;49.496;8.154;2024-01-30T10:59:52;18.43;;;16.60;;
26594;SDS011;14238;49.496;8.154;2024-01-30T11:02:21;16.80;;;15.30;;
26594;SDS011;14238;49.496;8.154;2024-01-30T11:04:49;17.30;;;15.67;;
26594;SDS011;14238;49.496;8.154;2024-01-30T11:07:24;18.00;;;16.47;;
26594;SDS011;14238;49.496;8.154;2024-01-30T11:09:52;16.50;;;14.80;;
26594;SDS011;14238;49.496;8.154;2024-01-30T11:12:22;18.93;;;17.27;;
26594;SDS011;14238;49.496;8.154;2024-01-30T11:14:50;16.00;;;14.63;;
26594;SDS011;14238;49.496;8.154;2024-01-30T11:22:50;23.57;;;21.33;;
26594;SDS011;14238;49.496;8.154;2024-01-30T11:25:18;25.10;;;22.70;;
26594;SDS011;14238;49.496;8.154;2024-01-30T11:27:46;26.03;;;23.63;;
26594;SDS011;14238;49.496;8.154;2024-01-30T11:30:26;25.73;;;23.43;;
26594;SDS011;14238;49.496;8.154;2024-01-30T11:33:05;24.37;;;22.07;;
26594;SDS011;14238;49.496;8.154;2024-01-30T11:35:34;26.47;;;24.07;;
26594;SDS011;14238;49.496;8.154;2024-01-30T11:38:02;25.17;;;22.77;;
26594;SDS011;14238;49.496;8.154;2024-01-30T11:40:29;24.10;;;21.90;;
26594;SDS011;14238;49.496;8.154;2024-01-30T11:42:58;25.53;;;23.13;;
26594;SDS011;14238;49.496;8.154;2024-01-30T11:45:25;25.83;;;23.43;;
26594;SDS011;14238;49.496;8.154;2024-01-30T11:47:53;24.67;;;22.27;;
26594;SDS011;14238;49.496;8.154;2024-01-30T11:50:20;26.33;;;23.73;;
26594;SDS011;14238;49.496;8.154;2024-01-30T11:52:47;26.70;;;24.30;;
26594;SDS011;14238;49.496;8.154;2024-01-30T11:55:14;25.00;;;22.40;;
26594;SDS011;14238;49.496;8.154;2024-01-30T11:57:40;23.73;;;21.30;;
26594;SDS011;14238;49.496;8.154;2024-01-30T12:00:18;24.60;;;22.30;;
26594;SDS011;14238;49.496;8.154;2024-01-30T12:02:49;23.20;;;21.10;;
26594;SDS011;14238;49.496;8.154;2024-01-30T12:05:15;24.20;;;21.90;;
26594;SDS011;14238;49.496;8.154;2024-01-30T12:07:45;23.03;;;20.73;;
26594;SDS011;14238;49.496;8.154;2024-01-30T12:10:15;24.83;;;22.53;;
26594;SDS011;14238;49.496;8.154;2024-01-30T12:12:44;24.60;;;22.33;;
26594;SDS011;14238;49.496;8.154;2024-01-30T12:15:11;26.37;;;23.87;;
26594;SDS011;14238;49.496;8.154;2024-01-30T12:17:39;24.80;;;21.57;;
26594;SDS011;14238;49.496;8.154;2024-01-30T12:20:07;27.10;;;24.60;;
26594;SDS011;14238;49.496;8.154;2024-01-30T12:22:41;24.93;;;22.57;;
26594;SDS011;14238;49.496;8.154;2024-01-30T12:25:09;24.23;;;22.03;;
26594;SDS011;14238;49.496;8.154;2024-01-30T12:27:36;24.97;;;22.60;;
26594;SDS011;14238;49.496;8.154;2024-01-30T12:30:07;24.97;;;22.47;;
26594;SDS011;14238;49.496;8.154;2024-01-30T12:32:41;28.30;;;25.63;;
26594;SDS011;14238;49.496;8.154;2024-01-30T12:35:11;28.57;;;25.87;;
26594;SDS011;14238;49.496;8.154;2024-01-30T12:37:39;26.97;;;24.47;;
26594;SDS011;14238;49.496;8.154;2024-01-30T12:40:09;24.90;;;22.33;;
26594;SDS011;14238;49.496;8.154;2024-01-30T12:42:36;25.03;;;22.77;;
26594;SDS011;14238;49.496;8.154;2024-01-30T12:45:03;24.30;;;21.90;;
26594;SDS011;14238;49.496;8.154;2024-01-30T12:47:29;23.37;;;21.03;;
26594;SDS011;14238;49.496;8.154;2024-01-30T12:49:55;21.47;;;19.57;;
26594;SDS011;14238;49.496;8.154;2024-01-30T12:52:23;22.80;;;20.37;;
26594;SDS011;14238;49.496;8.154;2024-01-30T12:54:50;20.53;;;18.63;;
26594;SDS011;14238;49.496;8.154;2024-01-30T12:57:18;21.80;;;19.80;;
26594;SDS011;14238;49.496;8.154;2024-01-30T12:59:45;20.53;;;18.83;;
26594;SDS011;14238;49.496;8.154;2024-01-30T13:02:12;21.00;;;18.43;;
26594;SDS011;14238;49.496;8.154;2024-01-30T13:04:39;19.30;;;17.70;;
26594;SDS011;14238;49.496;8.154;2024-01-30T13:07:05;21.80;;;19.50;;
26594;SDS011;14238;49.496;8.154;2024-01-30T13:09:31;19.00;;;17.23;;
26594;SDS011;14238;49.496;8.154;2024-01-30T13:11:58;20.20;;;18.33;;
26594;SDS011;14238;49.496;8.154;2024-01-30T13:14:24;21.53;;;19.20;;
26594;SDS011;14238;49.496;8.154;2024-01-30T13:16:50;20.30;;;18.30;;
26594;SDS011;14238;49.496;8.154;2024-01-30T13:19:17;20.77;;;18.87;;
26594;SDS011;14238;49.496;8.154;2024-01-30T13:21:42;20.03;;;18.13;;
26594;SDS011;14238;49.496;8.154;2024-01-30T13:24:08;19.67;;;17.77;;
26594;SDS011;14238;49.496;8.154;2024-01-30T13:26:36;21.00;;;19.00;;
26594;SDS011;14238;49.496;8.154;2024-01-30T13:29:02;19.40;;;17.50;;
26594;SDS011;14238;49.496;8.154;2024-01-30T13:31:28;20.43;;;18.23;;
26594;SDS011;14238;49.496;8.154;2024-01-30T13:33:55;22.00;;;19.30;;
26594;SDS011;14238;49.496;8.154;2024-01-30T13:36:21;18.50;;;16.77;;
26594;SDS011;14238;49.496;8.154;2024-01-30T13:38:47;19.13;;;17.23;;
26594;SDS011;14238;49.496;8.154;2024-01-30T13:41:13;19.83;;;17.83;;
26594;SDS011;14238;49.496;8.154;2024-01-30T13:43:40;22.80;;;20.50;;
26594;SDS011;14238;49.496;8.154;2024-01-30T13:46:05;19.93;;;17.93;;
26594;SDS011;14238;49.496;8.154;2024-01-30T13:48:31;18.30;;;16.53;;
26594;SDS011;14238;49.496;8.154;2024-01-30T13:50:57;19.73;;;17.73;;
26594;SDS011;14238;49.496;8.154;2024-01-30T13:53:24;22.53;;;16.83;;
26594;SDS011;14238;49.496;8.154;2024-01-30T13:55:50;17.97;;;16.27;;
26594;SDS011;14238;49.496;8.154;2024-01-30T13:58:16;18.03;;;16.37;;
26594;SDS011;14238;49.496;8.154;2024-01-30T14:00:42;18.53;;;16.73;;
26594;SDS011;14238;49.496;8.154;2024-01-30T14:03:08;18.20;;;16.40;;
26594;SDS011;14238;49.496;8.154;2024-01-30T14:05:34;17.67;;;15.97;;
26594;SDS011;14238;49.496;8.154;2024-01-30T14:08:00;17.27;;;15.53;;
26594;SDS011;14238;49.496;8.154;2024-01-30T14:10:26;14.87;;;13.53;;
26594;SDS011;14238;49.496;8.154;2024-01-30T14:12:54;15.17;;;13.67;;
26594;SDS011;14238;49.496;8.154;2024-01-30T14:15:21;15.93;;;14.47;;
26594;SDS011;14238;49.496;8.154;2024-01-30T14:17:47;15.40;;;14.00;;
26594;SDS011;14238;49.496;8.154;2024-01-30T14:20:14;15.87;;;14.27;;
26594;SDS011;14238;49.496;8.154;2024-01-30T14:22:44;16.03;;;14.50;;
26594;SDS011;14238;49.496;8.154;2024-01-30T14:25:09;14.60;;;13.10;;
26594;SDS011;14238;49.496;8.154;2024-01-30T14:27:36;15.80;;;13.63;;
26594;SDS011;14238;49.496;8.154;2024-01-30T14:30:02;14.73;;;13.43;;
26594;SDS011;14238;49.496;8.154;2024-01-30T14:32:28;14.20;;;12.80;;
26594;SDS011;14238;49.496;8.154;2024-01-30T14:34:54;13.87;;;12.47;;